sensor_id;sensor_type;location;lat;lon;timestamp;P1;durP1;ratioP1;P2;durP2;ratioP2
48215;SDS011;34005;48.844;10.098;2023-04-15T00:02:00;4.15;;;2.70;;
48215;SDS011;34005;48.844;10.098;2023-04-15T00:04:27;5.30;;;2.55;;
48215;SDS011;34005;48.844;10.098;2023-04-15T00:06:56;4.68;;;2.35;;
48215;SDS011;34005;48.844;10.098;2023-04-15T00:09:24;3.42;;;2.45;;
48215;SDS011;34005;48.844;10.098;2023-04-15T00:11:52;3.17;;;2.88;;
48215;SDS011;34005;48.844;10.098;2023-04-15T00:14:19;5.18;;;2.53;;
48215;SDS011;34005;48.844;10.098;2023-04-15T00:16:47;3.70;;;2.70;;
48215;SDS011;34005;48.844;10.098;2023-04-15T00:19:21;4.50;;;2.33;;
48215;SDS011;34005;48.844;10.098;2023-04-15T00:21:49;2.50;;;2.30;;
48215;SDS011;34005;48.844;10.098;2023-04-15T00:24:17;3.45;;;1.92;;
48215;SDS011;34005;48.844;10.098;2023-04-15T00:26:44;7.70;;;2.88;;
48215;SDS011;34005;48.844;10.098;2023-04-15T00:29:12;8.50;;;3.45;;
48215;SDS011;34005;48.844;10.098;2023-04-15T00:31:40;3.38;;;2.38;;
48215;SDS011;34005;48.844;10.098;2023-04-15T00:34:08;2.30;;;1.90;;
48215;SDS011;34005;48.844;10.098;2023-04-15T00:36:37;3.10;;;2.03;;
48215;SDS011;34005;48.844;10.098;2023-04-15T00:39:04;5.57;;;2.50;;
48215;SDS011;34005;48.844;10.098;2023-04-15T00:41:32;4.20;;;2.70;;
48215;SDS011;34005;48.844;10.098;2023-04-15T00:44:00;2.20;;;1.90;;
48215;SDS011;34005;48.844;10.098;2023-04-15T00:46:28;3.13;;;2.35;;
48215;SDS011;34005;48.844;10.098;2023-04-15T00:48:57;2.33;;;2.10;;
48215;SDS011;34005;48.844;10.098;2023-04-15T00:51:25;2.65;;;2.03;;
48215;SDS011;34005;48.844;10.098;2023-04-15T00:53:54;3.17;;;2.50;;
48215;SDS011;34005;48.844;10.098;2023-04-15T00:56:22;4.82;;;2.40;;
48215;SDS011;34005;48.844;10.098;2023-04-15T00:58:50;3.78;;;2.80;;
48215;SDS011;34005;48.844;10.098;2023-04-15T01:01:18;3.17;;;2.17;;
48215;SDS011;34005;48.844;10.098;2023-04-15T01:03:48;3.88;;;2.55;;
48215;SDS011;34005;48.844;10.098;2023-04-15T01:06:16;4.35;;;2.45;;
48215;SDS011;34005;48.844;10.098;2023-04-15T01:08:44;2.80;;;2.55;;
48215;SDS011;34005;48.844;10.098;2023-04-15T01:11:13;2.78;;;2.58;;
48215;SDS011;34005;48.844;10.098;2023-04-15T01:13:41;4.10;;;2.65;;
48215;SDS011;34005;48.844;10.098;2023-04-15T01:16:09;2.55;;;1.88;;
48215;SDS011;34005;48.844;10.098;2023-04-15T01:18:38;2.50;;;2.25;;
48215;SDS011;34005;48.844;10.098;2023-04-15T01:21:06;2.75;;;2.05;;
48215;SDS011;34005;48.844;10.098;2023-04-15T01:23:34;2.13;;;1.88;;
48215;SDS011;34005;48.844;10.098;2023-04-15T01:26:05;4.00;;;2.08;;
48215;SDS011;34005;48.844;10.098;2023-04-15T01:28:34;4.82;;;2.25;;
48215;SDS011;34005;48.844;10.098;2023-04-15T01:31:06;3.90;;;2.22;;
48215;SDS011;34005;48.844;10.098;2023-04-15T01:33:34;3.60;;;2.50;;
48215;SDS011;34005;48.844;10.098;2023-04-15T01:36:02;3.95;;;2.33;;
48215;SDS011;34005;48.844;10.098;2023-04-15T01:38:30;2.30;;;2.10;;
48215;SDS011;34005;48.844;10.098;2023-04-15T01:40:58;6.35;;;2.30;;
48215;SDS011;34005;48.844;10.098;2023-04-15T01:43:27;2.72;;;2.00;;
48215;SDS011;34005;48.844;10.098;2023-04-15T01:45:54;5.32;;;2.45;;
48215;SDS011;34005;48.844;10.098;2023-04-15T01:48:22;7.63;;;3.42;;
48215;SDS011;34005;48.844;10.098;2023-04-15T01:50:51;6.65;;;2.72;;
48215;SDS011;34005;48.844;10.098;2023-04-15T01:53:18;5.40;;;3.25;;
48215;SDS011;34005;48.844;10.098;2023-04-15T01:55:46;5.07;;;3.40;;
48215;SDS011;34005;48.844;10.098;2023-04-15T01:58:14;4.40;;;2.72;;
48215;SDS011;34005;48.844;10.098;2023-04-15T02:00:43;3.17;;;2.55;;
48215;SDS011;34005;48.844;10.098;2023-04-15T02:03:10;2.72;;;2.30;;
48215;SDS011;34005;48.844;10.098;2023-04-15T02:05:38;2.97;;;2.28;;
48215;SDS011;34005;48.844;10.098;2023-04-15T02:08:05;2.17;;;2.00;;
48215;SDS011;34005;48.844;10.098;2023-04-15T02:10:33;4.38;;;2.30;;
48215;SDS011;34005;48.844;10.098;2023-04-15T02:13:00;2.45;;;2.22;;
48215;SDS011;34005;48.844;10.098;2023-04-15T02:15:28;6.85;;;3.45;;
48215;SDS011;34005;48.844;10.098;2023-04-15T02:17:57;3.10;;;2.50;;
48215;SDS011;34005;48.844;10.098;2023-04-15T02:20:26;2.83;;;2.40;;
48215;SDS011;34005;48.844;10.098;2023-04-15T02:22:55;3.67;;;2.10;;
48215;SDS011;34005;48.844;10.098;2023-04-15T02:25:23;6.35;;;3.75;;
48215;SDS011;34005;48.844;10.098;2023-04-15T02:27:50;3.75;;;2.65;;
48215;SDS011;34005;48.844;10.098;2023-04-15T02:30:18;9.57;;;4.30;;
48215;SDS011;34005;48.844;10.098;2023-04-15T02:32:46;12.07;;;6.38;;
48215;SDS011;34005;48.844;10.098;2023-04-15T02:35:15;12.68;;;5.43;;
48215;SDS011;34005;48.844;10.098;2023-04-15T02:37:44;8.13;;;3.95;;
48215;SDS011;34005;48.844;10.098;2023-04-15T02:40:12;6.45;;;3.63;;
48215;SDS011;34005;48.844;10.098;2023-04-15T02:42:40;5.47;;;3.05;;
48215;SDS011;34005;48.844;10.098;2023-04-15T02:45:09;3.00;;;2.70;;
48215;SDS011;34005;48.844;10.098;2023-04-15T02:47:38;2.78;;;2.08;;
48215;SDS011;34005;48.844;10.098;2023-04-15T02:50:07;3.20;;;2.65;;
48215;SDS011;34005;48.844;10.098;2023-04-15T02:52:39;6.47;;;3.00;;
48215;SDS011;34005;48.844;10.098;2023-04-15T02:55:07;2.78;;;2.42;;
48215;SDS011;34005;48.844;10.098;2023-04-15T02:57:35;2.58;;;2.38;;
48215;SDS011;34005;48.844;10.098;2023-04-15T03:00:04;2.75;;;2.53;;
48215;SDS011;34005;48.844;10.098;2023-04-15T03:02:35;2.03;;;1.92;;
48215;SDS011;34005;48.844;10.098;2023-04-15T03:05:03;2.38;;;2.17;;
48215;SDS011;34005;48.844;10.098;2023-04-15T03:07:32;3.55;;;2.40;;
48215;SDS011;34005;48.844;10.098;2023-04-15T03:10:00;2.78;;;2.28;;
48215;SDS011;34005;48.844;10.098;2023-04-15T03:12:28;4.97;;;3.30;;
48215;SDS011;34005;48.844;10.098;2023-04-15T03:14:56;5.05;;;4.00;;
48215;SDS011;34005;48.844;10.098;2023-04-15T03:17:23;4.10;;;2.97;;
48215;SDS011;34005;48.844;10.098;2023-04-15T03:19:51;3.45;;;3.15;;
48215;SDS011;34005;48.844;10.098;2023-04-15T03:22:18;5.28;;;3.50;;
48215;SDS011;34005;48.844;10.098;2023-04-15T03:24:46;4.35;;;3.03;;
48215;SDS011;34005;48.844;10.098;2023-04-15T03:27:15;3.55;;;3.17;;
48215;SDS011;34005;48.844;10.098;2023-04-15T03:29:42;3.22;;;2.65;;
48215;SDS011;34005;48.844;10.098;2023-04-15T03:32:10;3.10;;;2.53;;
48215;SDS011;34005;48.844;10.098;2023-04-15T03:34:38;3.50;;;2.78;;
48215;SDS011;34005;48.844;10.098;2023-04-15T03:37:05;5.07;;;2.90;;
48215;SDS011;34005;48.844;10.098;2023-04-15T03:39:33;3.88;;;3.42;;
48215;SDS011;34005;48.844;10.098;2023-04-15T03:42:00;2.92;;;2.72;;
48215;SDS011;34005;48.844;10.098;2023-04-15T03:44:30;4.78;;;2.90;;
48215;SDS011;34005;48.844;10.098;2023-04-15T03:46:57;4.03;;;3.38;;
48215;SDS011;34005;48.844;10.098;2023-04-15T03:49:25;3.00;;;2.70;;
48215;SDS011;34005;48.844;10.098;2023-04-15T03:51:52;3.70;;;2.72;;
48215;SDS011;34005;48.844;10.098;2023-04-15T03:54:20;2.97;;;2.70;;
48215;SDS011;34005;48.844;10.098;2023-04-15T03:56:48;4.25;;;3.40;;
48215;SDS011;34005;48.844;10.098;2023-04-15T03:59:15;4.85;;;3.33;;
48215;SDS011;34005;48.844;10.098;2023-04-15T04:01:44;4.00;;;2.80;;
48215;SDS011;34005;48.844;10.098;2023-04-15T04:04:12;4.70;;;3.40;;
48215;SDS011;34005;48.844;10.098;2023-04-15T04:06:40;3.22;;;2.80;;
48215;SDS011;34005;48.844;10.098;2023-04-15T04:09:07;6.95;;;3.58;;
48215;SDS011;34005;48.844;10.098;2023-04-15T04:11:35;4.43;;;2.95;;
48215;SDS011;34005;48.844;10.098;2023-04-15T04:14:02;4.60;;;4.05;;
48215;SDS011;34005;48.844;10.098;2023-04-15T04:16:30;4.78;;;3.92;;
48215;SDS011;34005;48.844;10.098;2023-04-15T04:18:59;9.88;;;4.85;;
48215;SDS011;34005;48.844;10.098;2023-04-15T04:21:27;6.13;;;4.18;;
48215;SDS011;34005;48.844;10.098;2023-04-15T04:23:55;4.72;;;3.55;;
48215;SDS011;34005;48.844;10.098;2023-04-15T04:26:24;4.05;;;3.35;;
48215;SDS011;34005;48.844;10.098;2023-04-15T04:28:52;8.65;;;4.93;;
48215;SDS011;34005;48.844;10.098;2023-04-15T04:31:20;5.95;;;4.88;;
48215;SDS011;34005;48.844;10.098;2023-04-15T04:33:48;11.77;;;5.07;;
48215;SDS011;34005;48.844;10.098;2023-04-15T04:36:17;6.03;;;3.90;;
48215;SDS011;34005;48.844;10.098;2023-04-15T04:38:45;3.53;;;3.10;;
48215;SDS011;34005;48.844;10.098;2023-04-15T04:41:12;9.02;;;3.65;;
48215;SDS011;34005;48.844;10.098;2023-04-15T04:43:40;5.90;;;4.22;;
48215;SDS011;34005;48.844;10.098;2023-04-15T04:46:07;5.72;;;4.40;;
48215;SDS011;34005;48.844;10.098;2023-04-15T04:48:35;7.32;;;4.60;;
48215;SDS011;34005;48.844;10.098;2023-04-15T04:51:03;4.32;;;3.78;;
48215;SDS011;34005;48.844;10.098;2023-04-15T04:53:32;3.90;;;3.40;;
48215;SDS011;34005;48.844;10.098;2023-04-15T04:56:00;5.53;;;3.72;;
48215;SDS011;34005;48.844;10.098;2023-04-15T04:58:27;5.28;;;3.80;;
48215;SDS011;34005;48.844;10.098;2023-04-15T05:00:55;3.97;;;3.47;;
48215;SDS011;34005;48.844;10.098;2023-04-15T05:03:23;4.88;;;3.70;;
48215;SDS011;34005;48.844;10.098;2023-04-15T05:05:51;5.95;;;4.00;;
48215;SDS011;34005;48.844;10.098;2023-04-15T05:08:19;7.43;;;4.28;;
48215;SDS011;34005;48.844;10.098;2023-04-15T05:10:48;4.53;;;3.50;;
48215;SDS011;34005;48.844;10.098;2023-04-15T05:13:16;4.70;;;3.42;;
48215;SDS011;34005;48.844;10.098;2023-04-15T05:15:43;6.75;;;4.25;;
48215;SDS011;34005;48.844;10.098;2023-04-15T05:18:11;4.68;;;3.60;;
48215;SDS011;34005;48.844;10.098;2023-04-15T05:20:39;5.68;;;3.65;;
48215;SDS011;34005;48.844;10.098;2023-04-15T05:23:06;6.60;;;4.40;;
48215;SDS011;34005;48.844;10.098;2023-04-15T05:25:34;8.05;;;6.15;;
48215;SDS011;34005;48.844;10.098;2023-04-15T05:28:03;8.90;;;5.15;;
48215;SDS011;34005;48.844;10.098;2023-04-15T05:30:31;7.97;;;5.55;;
48215;SDS011;34005;48.844;10.098;2023-04-15T05:32:58;5.65;;;4.85;;
48215;SDS011;34005;48.844;10.098;2023-04-15T05:35:26;6.63;;;4.40;;
48215;SDS011;34005;48.844;10.098;2023-04-15T05:37:53;6.82;;;4.30;;
48215;SDS011;34005;48.844;10.098;2023-04-15T05:40:21;4.53;;;3.70;;
48215;SDS011;34005;48.844;10.098;2023-04-15T05:42:49;4.70;;;3.75;;
48215;SDS011;34005;48.844;10.098;2023-04-15T05:45:18;3.75;;;3.00;;
48215;SDS011;34005;48.844;10.098;2023-04-15T05:47:46;3.53;;;3.22;;
48215;SDS011;34005;48.844;10.098;2023-04-15T05:50:15;4.68;;;3.13;;
48215;SDS011;34005;48.844;10.098;2023-04-15T05:52:43;5.72;;;3.58;;
48215;SDS011;34005;48.844;10.098;2023-04-15T05:55:12;5.03;;;3.53;;
48215;SDS011;34005;48.844;10.098;2023-04-15T05:57:40;4.57;;;3.22;;
48215;SDS011;34005;48.844;10.098;2023-04-15T06:00:08;5.28;;;3.40;;
48215;SDS011;34005;48.844;10.098;2023-04-15T06:02:37;3.95;;;3.35;;
48215;SDS011;34005;48.844;10.098;2023-04-15T06:05:05;4.93;;;3.30;;
48215;SDS011;34005;48.844;10.098;2023-04-15T06:07:35;7.30;;;4.00;;
48215;SDS011;34005;48.844;10.098;2023-04-15T06:10:03;5.70;;;3.15;;
48215;SDS011;34005;48.844;10.098;2023-04-15T06:12:32;6.10;;;3.63;;
48215;SDS011;34005;48.844;10.098;2023-04-15T06:14:59;4.63;;;3.50;;
48215;SDS011;34005;48.844;10.098;2023-04-15T06:17:27;4.70;;;3.38;;
48215;SDS011;34005;48.844;10.098;2023-04-15T06:19:56;7.20;;;3.60;;
48215;SDS011;34005;48.844;10.098;2023-04-15T06:22:24;5.90;;;3.92;;
48215;SDS011;34005;48.844;10.098;2023-04-15T06:24:51;7.22;;;3.78;;
48215;SDS011;34005;48.844;10.098;2023-04-15T06:27:19;6.32;;;4.03;;
48215;SDS011;34005;48.844;10.098;2023-04-15T06:29:48;6.80;;;4.68;;
48215;SDS011;34005;48.844;10.098;2023-04-15T06:32:15;6.22;;;4.35;;
48215;SDS011;34005;48.844;10.098;2023-04-15T06:34:43;4.78;;;3.70;;
48215;SDS011;34005;48.844;10.098;2023-04-15T06:37:12;5.88;;;4.43;;
48215;SDS011;34005;48.844;10.098;2023-04-15T06:39:41;7.00;;;4.78;;
48215;SDS011;34005;48.844;10.098;2023-04-15T06:42:09;5.75;;;4.00;;
48215;SDS011;34005;48.844;10.098;2023-04-15T06:44:37;6.28;;;4.45;;
48215;SDS011;34005;48.844;10.098;2023-04-15T06:47:05;8.32;;;4.88;;
48215;SDS011;34005;48.844;10.098;2023-04-15T06:49:32;5.88;;;5.28;;
48215;SDS011;34005;48.844;10.098;2023-04-15T06:52:00;8.98;;;5.18;;
48215;SDS011;34005;48.844;10.098;2023-04-15T06:54:31;7.25;;;4.75;;
48215;SDS011;34005;48.844;10.098;2023-04-15T06:56:59;5.00;;;4.15;;
48215;SDS011;34005;48.844;10.098;2023-04-15T06:59:26;6.00;;;4.35;;
48215;SDS011;34005;48.844;10.098;2023-04-15T07:01:54;9.00;;;6.50;;
48215;SDS011;34005;48.844;10.098;2023-04-15T07:04:21;7.55;;;5.25;;
48215;SDS011;34005;48.844;10.098;2023-04-15T07:06:49;7.95;;;4.93;;
48215;SDS011;34005;48.844;10.098;2023-04-15T07:09:17;8.95;;;5.35;;
48215;SDS011;34005;48.844;10.098;2023-04-15T07:11:47;6.05;;;5.15;;
48215;SDS011;34005;48.844;10.098;2023-04-15T07:14:15;7.18;;;5.05;;
48215;SDS011;34005;48.844;10.098;2023-04-15T07:16:42;7.93;;;4.50;;
48215;SDS011;34005;48.844;10.098;2023-04-15T07:19:10;8.15;;;4.63;;
48215;SDS011;34005;48.844;10.098;2023-04-15T07:21:38;9.98;;;4.80;;
48215;SDS011;34005;48.844;10.098;2023-04-15T07:24:07;7.57;;;4.57;;
48215;SDS011;34005;48.844;10.098;2023-04-15T07:26:35;8.25;;;5.35;;
48215;SDS011;34005;48.844;10.098;2023-04-15T07:29:04;7.60;;;4.80;;
48215;SDS011;34005;48.844;10.098;2023-04-15T07:31:32;7.38;;;5.28;;
48215;SDS011;34005;48.844;10.098;2023-04-15T07:33:59;9.90;;;5.35;;
48215;SDS011;34005;48.844;10.098;2023-04-15T07:36:27;7.95;;;4.72;;
48215;SDS011;34005;48.844;10.098;2023-04-15T07:38:55;6.53;;;5.60;;
48215;SDS011;34005;48.844;10.098;2023-04-15T07:41:22;7.05;;;4.90;;
48215;SDS011;34005;48.844;10.098;2023-04-15T07:43:50;6.20;;;4.57;;
48215;SDS011;34005;48.844;10.098;2023-04-15T07:46:19;8.93;;;5.75;;
48215;SDS011;34005;48.844;10.098;2023-04-15T07:48:49;9.32;;;4.93;;
48215;SDS011;34005;48.844;10.098;2023-04-15T07:51:17;5.78;;;4.45;;
48215;SDS011;34005;48.844;10.098;2023-04-15T07:53:46;9.88;;;5.03;;
48215;SDS011;34005;48.844;10.098;2023-04-15T07:56:13;6.45;;;4.50;;
48215;SDS011;34005;48.844;10.098;2023-04-15T07:58:41;6.93;;;4.30;;
48215;SDS011;34005;48.844;10.098;2023-04-15T08:01:09;7.90;;;3.85;;
48215;SDS011;34005;48.844;10.098;2023-04-15T08:03:38;5.63;;;3.65;;
48215;SDS011;34005;48.844;10.098;2023-04-15T08:06:06;8.18;;;4.82;;
48215;SDS011;34005;48.844;10.098;2023-04-15T08:08:34;8.60;;;4.25;;
48215;SDS011;34005;48.844;10.098;2023-04-15T08:11:02;10.20;;;3.95;;
48215;SDS011;34005;48.844;10.098;2023-04-15T08:13:30;5.03;;;3.25;;
48215;SDS011;34005;48.844;10.098;2023-04-15T08:16:15;7.88;;;3.53;;
48215;SDS011;34005;48.844;10.098;2023-04-15T08:18:46;9.93;;;3.00;;
48215;SDS011;34005;48.844;10.098;2023-04-15T08:21:14;6.65;;;3.03;;
48215;SDS011;34005;48.844;10.098;2023-04-15T08:23:44;6.22;;;3.22;;
48215;SDS011;34005;48.844;10.098;2023-04-15T08:26:12;7.00;;;3.08;;
48215;SDS011;34005;48.844;10.098;2023-04-15T08:28:41;5.30;;;3.30;;
48215;SDS011;34005;48.844;10.098;2023-04-15T08:31:12;4.50;;;3.30;;
48215;SDS011;34005;48.844;10.098;2023-04-15T08:33:41;4.70;;;3.45;;
48215;SDS011;34005;48.844;10.098;2023-04-15T08:36:10;4.03;;;3.05;;
48215;SDS011;34005;48.844;10.098;2023-04-15T08:38:38;4.97;;;3.47;;
48215;SDS011;34005;48.844;10.098;2023-04-15T08:41:11;5.18;;;3.22;;
48215;SDS011;34005;48.844;10.098;2023-04-15T08:43:48;4.03;;;2.58;;
48215;SDS011;34005;48.844;10.098;2023-04-15T08:46:19;7.53;;;3.72;;
48215;SDS011;34005;48.844;10.098;2023-04-15T08:48:48;5.78;;;3.15;;
48215;SDS011;34005;48.844;10.098;2023-04-15T08:51:17;6.32;;;3.13;;
48215;SDS011;34005;48.844;10.098;2023-04-15T08:53:46;4.75;;;3.22;;
48215;SDS011;34005;48.844;10.098;2023-04-15T08:56:15;5.72;;;3.55;;
48215;SDS011;34005;48.844;10.098;2023-04-15T08:58:43;8.50;;;3.95;;
48215;SDS011;34005;48.844;10.098;2023-04-15T09:01:11;8.02;;;3.83;;
48215;SDS011;34005;48.844;10.098;2023-04-15T09:03:39;5.28;;;3.50;;
48215;SDS011;34005;48.844;10.098;2023-04-15T09:06:08;5.07;;;2.95;;
48215;SDS011;34005;48.844;10.098;2023-04-15T09:08:37;7.05;;;3.38;;
48215;SDS011;34005;48.844;10.098;2023-04-15T09:11:05;5.45;;;3.78;;
48215;SDS011;34005;48.844;10.098;2023-04-15T09:13:33;7.07;;;3.55;;
48215;SDS011;34005;48.844;10.098;2023-04-15T09:16:01;5.72;;;3.28;;
48215;SDS011;34005;48.844;10.098;2023-04-15T09:18:29;4.78;;;3.05;;
48215;SDS011;34005;48.844;10.098;2023-04-15T09:21:05;4.50;;;3.03;;
48215;SDS011;34005;48.844;10.098;2023-04-15T09:23:34;6.65;;;3.35;;
48215;SDS011;34005;48.844;10.098;2023-04-15T09:26:03;5.03;;;3.13;;
48215;SDS011;34005;48.844;10.098;2023-04-15T09:28:32;4.07;;;2.83;;
48215;SDS011;34005;48.844;10.098;2023-04-15T09:31:01;5.28;;;3.65;;
48215;SDS011;34005;48.844;10.098;2023-04-15T09:33:29;6.70;;;3.40;;
48215;SDS011;34005;48.844;10.098;2023-04-15T09:35:57;5.07;;;3.05;;
48215;SDS011;34005;48.844;10.098;2023-04-15T09:38:26;4.03;;;2.80;;
48215;SDS011;34005;48.844;10.098;2023-04-15T09:40:54;5.13;;;3.17;;
48215;SDS011;34005;48.844;10.098;2023-04-15T09:43:25;5.93;;;3.50;;
48215;SDS011;34005;48.844;10.098;2023-04-15T09:46:04;3.63;;;2.80;;
48215;SDS011;34005;48.844;10.098;2023-04-15T09:48:31;5.50;;;3.55;;
48215;SDS011;34005;48.844;10.098;2023-04-15T09:50:59;5.07;;;3.72;;
48215;SDS011;34005;48.844;10.098;2023-04-15T09:53:27;6.57;;;3.90;;
48215;SDS011;34005;48.844;10.098;2023-04-15T09:55:57;5.38;;;3.60;;
48215;SDS011;34005;48.844;10.098;2023-04-15T09:58:29;4.35;;;2.90;;
48215;SDS011;34005;48.844;10.098;2023-04-15T10:00:58;3.42;;;3.13;;
48215;SDS011;34005;48.844;10.098;2023-04-15T10:03:29;4.70;;;2.92;;
48215;SDS011;34005;48.844;10.098;2023-04-15T10:05:59;5.45;;;3.80;;
48215;SDS011;34005;48.844;10.098;2023-04-15T10:08:28;5.95;;;3.85;;
48215;SDS011;34005;48.844;10.098;2023-04-15T10:10:58;6.93;;;4.25;;
48215;SDS011;34005;48.844;10.098;2023-04-15T10:13:30;5.57;;;4.50;;
48215;SDS011;34005;48.844;10.098;2023-04-15T10:16:03;9.40;;;4.97;;
48215;SDS011;34005;48.844;10.098;2023-04-15T10:18:33;5.82;;;4.57;;
48215;SDS011;34005;48.844;10.098;2023-04-15T10:21:04;6.78;;;5.05;;
48215;SDS011;34005;48.844;10.098;2023-04-15T10:23:32;5.57;;;4.57;;
48215;SDS011;34005;48.844;10.098;2023-04-15T10:26:00;6.75;;;5.13;;
48215;SDS011;34005;48.844;10.098;2023-04-15T10:28:31;7.72;;;5.03;;
48215;SDS011;34005;48.844;10.098;2023-04-15T10:31:01;6.45;;;4.57;;
48215;SDS011;34005;48.844;10.098;2023-04-15T10:33:31;8.35;;;5.25;;
48215;SDS011;34005;48.844;10.098;2023-04-15T10:35:59;6.72;;;4.97;;
48215;SDS011;34005;48.844;10.098;2023-04-15T10:38:30;7.60;;;4.80;;
48215;SDS011;34005;48.844;10.098;2023-04-15T10:41:12;5.13;;;4.57;;
48215;SDS011;34005;48.844;10.098;2023-04-15T10:43:48;5.15;;;4.65;;
48215;SDS011;34005;48.844;10.098;2023-04-15T10:46:18;6.05;;;4.60;;
48215;SDS011;34005;48.844;10.098;2023-04-15T10:48:48;5.70;;;4.90;;
48215;SDS011;34005;48.844;10.098;2023-04-15T10:51:25;7.93;;;5.97;;
48215;SDS011;34005;48.844;10.098;2023-04-15T10:53:57;6.60;;;4.35;;
48215;SDS011;34005;48.844;10.098;2023-04-15T10:56:27;5.88;;;4.82;;
48215;SDS011;34005;48.844;10.098;2023-04-15T10:58:58;10.52;;;5.95;;
48215;SDS011;34005;48.844;10.098;2023-04-15T11:07:34;5.43;;;3.97;;
48215;SDS011;34005;48.844;10.098;2023-04-15T11:10:03;4.72;;;3.80;;
48215;SDS011;34005;48.844;10.098;2023-04-15T11:12:53;5.13;;;3.60;;
48215;SDS011;34005;48.844;10.098;2023-04-15T11:15:24;8.90;;;4.40;;
48215;SDS011;34005;48.844;10.098;2023-04-15T11:17:55;8.07;;;3.97;;
48215;SDS011;34005;48.844;10.098;2023-04-15T11:20:23;4.93;;;4.43;;
48215;SDS011;34005;48.844;10.098;2023-04-15T11:22:52;7.10;;;4.50;;
48215;SDS011;34005;48.844;10.098;2023-04-15T11:25:40;7.88;;;4.35;;
48215;SDS011;34005;48.844;10.098;2023-04-15T11:28:10;4.47;;;4.07;;
48215;SDS011;34005;48.844;10.098;2023-04-15T11:30:39;5.35;;;4.22;;
48215;SDS011;34005;48.844;10.098;2023-04-15T11:33:09;5.45;;;4.13;;
48215;SDS011;34005;48.844;10.098;2023-04-15T11:35:39;5.22;;;4.00;;
48215;SDS011;34005;48.844;10.098;2023-04-15T11:38:08;4.35;;;3.95;;
48215;SDS011;34005;48.844;10.098;2023-04-15T11:40:37;5.50;;;4.00;;
48215;SDS011;34005;48.844;10.098;2023-04-15T11:43:06;6.60;;;4.20;;
48215;SDS011;34005;48.844;10.098;2023-04-15T11:45:36;4.50;;;3.72;;
48215;SDS011;34005;48.844;10.098;2023-04-15T11:48:05;5.47;;;4.05;;
48215;SDS011;34005;48.844;10.098;2023-04-15T11:50:33;4.32;;;3.45;;
48215;SDS011;34005;48.844;10.098;2023-04-15T11:53:02;4.18;;;3.83;;
48215;SDS011;34005;48.844;10.098;2023-04-15T11:55:40;6.67;;;3.50;;
48215;SDS011;34005;48.844;10.098;2023-04-15T11:58:09;3.65;;;3.35;;
48215;SDS011;34005;48.844;10.098;2023-04-15T12:00:46;4.03;;;3.17;;
48215;SDS011;34005;48.844;10.098;2023-04-15T12:03:21;6.07;;;3.75;;
48215;SDS011;34005;48.844;10.098;2023-04-15T12:06:07;4.30;;;3.22;;
48215;SDS011;34005;48.844;10.098;2023-04-15T12:08:57;5.25;;;3.20;;
48215;SDS011;34005;48.844;10.098;2023-04-15T12:11:36;5.82;;;2.88;;
48215;SDS011;34005;48.844;10.098;2023-04-15T12:14:10;5.25;;;3.03;;
48215;SDS011;34005;48.844;10.098;2023-04-15T12:16:41;3.83;;;2.30;;
48215;SDS011;34005;48.844;10.098;2023-04-15T12:19:15;3.72;;;1.90;;
48215;SDS011;34005;48.844;10.098;2023-04-15T12:21:45;2.35;;;2.15;;
48215;SDS011;34005;48.844;10.098;2023-04-15T12:24:14;3.47;;;2.55;;
48215;SDS011;34005;48.844;10.098;2023-04-15T12:26:46;4.13;;;2.60;;
48215;SDS011;34005;48.844;10.098;2023-04-15T12:29:15;4.55;;;2.10;;
48215;SDS011;34005;48.844;10.098;2023-04-15T12:31:48;3.42;;;1.92;;
48215;SDS011;34005;48.844;10.098;2023-04-15T12:34:17;3.20;;;2.10;;
48215;SDS011;34005;48.844;10.098;2023-04-15T12:36:52;3.15;;;1.80;;
48215;SDS011;34005;48.844;10.098;2023-04-15T12:39:20;3.80;;;2.20;;
48215;SDS011;34005;48.844;10.098;2023-04-15T12:41:48;3.55;;;1.90;;
48215;SDS011;34005;48.844;10.098;2023-04-15T12:44:16;2.45;;;1.92;;
48215;SDS011;34005;48.844;10.098;2023-04-15T12:46:44;2.05;;;1.50;;
48215;SDS011;34005;48.844;10.098;2023-04-15T12:49:13;3.95;;;1.90;;
48215;SDS011;34005;48.844;10.098;2023-04-15T12:51:41;4.45;;;1.92;;
48215;SDS011;34005;48.844;10.098;2023-04-15T12:54:08;5.50;;;1.88;;
48215;SDS011;34005;48.844;10.098;2023-04-15T12:56:36;2.78;;;2.03;;
48215;SDS011;34005;48.844;10.098;2023-04-15T12:59:03;3.58;;;1.80;;
48215;SDS011;34005;48.844;10.098;2023-04-15T13:01:31;2.75;;;1.98;;
48215;SDS011;34005;48.844;10.098;2023-04-15T13:03:59;2.78;;;1.58;;
48215;SDS011;34005;48.844;10.098;2023-04-15T13:06:28;2.65;;;1.63;;
48215;SDS011;34005;48.844;10.098;2023-04-15T13:08:58;1.75;;;1.38;;
48215;SDS011;34005;48.844;10.098;2023-04-15T13:11:28;2.85;;;1.23;;
48215;SDS011;34005;48.844;10.098;2023-04-15T13:13:59;1.15;;;1.05;;
48215;SDS011;34005;48.844;10.098;2023-04-15T13:16:27;1.42;;;1.08;;
48215;SDS011;34005;48.844;10.098;2023-04-15T13:18:55;1.63;;;1.15;;
48215;SDS011;34005;48.844;10.098;2023-04-15T13:21:22;1.55;;;1.10;;
48215;SDS011;34005;48.844;10.098;2023-04-15T13:23:51;1.88;;;1.10;;
48215;SDS011;34005;48.844;10.098;2023-04-15T13:26:19;2.25;;;1.30;;
48215;SDS011;34005;48.844;10.098;2023-04-15T13:28:47;2.28;;;1.45;;
48215;SDS011;34005;48.844;10.098;2023-04-15T13:31:14;2.95;;;1.20;;
48215;SDS011;34005;48.844;10.098;2023-04-15T13:33:42;1.00;;;1.00;;
48215;SDS011;34005;48.844;10.098;2023-04-15T13:36:10;1.48;;;0.95;;
48215;SDS011;34005;48.844;10.098;2023-04-15T13:38:37;0.80;;;0.80;;
48215;SDS011;34005;48.844;10.098;2023-04-15T13:41:06;1.27;;;0.80;;
48215;SDS011;34005;48.844;10.098;2023-04-15T13:43:34;1.60;;;1.17;;
48215;SDS011;34005;48.844;10.098;2023-04-15T13:46:01;1.77;;;1.10;;
48215;SDS011;34005;48.844;10.098;2023-04-15T13:48:29;2.67;;;1.15;;
48215;SDS011;34005;48.844;10.098;2023-04-15T13:50:57;2.38;;;1.10;;
48215;SDS011;34005;48.844;10.098;2023-04-15T13:53:24;1.30;;;1.08;;
48215;SDS011;34005;48.844;10.098;2023-04-15T13:56:04;4.40;;;0.95;;
48215;SDS011;34005;48.844;10.098;2023-04-15T13:58:34;2.35;;;1.65;;
48215;SDS011;34005;48.844;10.098;2023-04-15T14:01:03;0.80;;;0.70;;
48215;SDS011;34005;48.844;10.098;2023-04-15T14:03:33;2.92;;;1.45;;
48215;SDS011;34005;48.844;10.098;2023-04-15T14:06:01;2.10;;;1.30;;
48215;SDS011;34005;48.844;10.098;2023-04-15T14:08:29;3.63;;;1.33;;
48215;SDS011;34005;48.844;10.098;2023-04-15T14:10:57;1.60;;;1.27;;
48215;SDS011;34005;48.844;10.098;2023-04-15T14:13:24;2.78;;;1.38;;
48215;SDS011;34005;48.844;10.098;2023-04-15T14:15:53;1.65;;;1.20;;
48215;SDS011;34005;48.844;10.098;2023-04-15T14:18:21;3.15;;;1.45;;
48215;SDS011;34005;48.844;10.098;2023-04-15T14:20:49;1.42;;;1.10;;
48215;SDS011;34005;48.844;10.098;2023-04-15T14:23:16;2.50;;;1.88;;
48215;SDS011;34005;48.844;10.098;2023-04-15T14:25:44;1.55;;;1.25;;
48215;SDS011;34005;48.844;10.098;2023-04-15T14:28:13;1.50;;;1.08;;
48215;SDS011;34005;48.844;10.098;2023-04-15T14:30:41;2.38;;;1.38;;
48215;SDS011;34005;48.844;10.098;2023-04-15T14:33:10;1.73;;;1.27;;
48215;SDS011;34005;48.844;10.098;2023-04-15T14:35:38;1.90;;;1.40;;
48215;SDS011;34005;48.844;10.098;2023-04-15T14:38:05;1.95;;;1.27;;
48215;SDS011;34005;48.844;10.098;2023-04-15T14:40:36;0.98;;;0.98;;
48215;SDS011;34005;48.844;10.098;2023-04-15T14:43:04;2.45;;;1.48;;
48215;SDS011;34005;48.844;10.098;2023-04-15T14:45:31;1.40;;;1.20;;
48215;SDS011;34005;48.844;10.098;2023-04-15T14:47:59;2.00;;;1.48;;
48215;SDS011;34005;48.844;10.098;2023-04-15T14:50:29;2.00;;;1.38;;